createdAt,value
2022-09-30T00:03:59.275Z,88.40
2022-09-30T00:09:03.588Z,87.72
2022-09-30T00:14:13.455Z,89.69
2022-09-30T00:19:18.793Z,89.85
2022-09-30T00:24:21.385Z,90.75
2022-09-30T00:29:24.733Z,96.92
2022-09-30T00:34:27.225Z,100.00
2022-09-30T00:39:37.663Z,100.00
2022-09-30T00:44:52.088Z,100.00
2022-09-30T00:49:58.657Z,100.00
2022-09-30T00:55:08.327Z,98.95
2022-09-30T01:00:11.012Z,100.00
2022-09-30T01:05:13.737Z,100.00
2022-09-30T01:10:16.343Z,99.08
2022-09-30T01:15:24.683Z,97.38
2022-09-30T01:21:13.541Z,98.51
2022-09-30T01:26:49.447Z,99.17
2022-09-30T01:32:23.391Z,99.38
2022-09-30T01:37:59.910Z,97.01
2022-09-30T01:43:17.793Z,100.00
2022-09-30T01:48:56.571Z,100.00
2022-09-30T01:54:10.058Z,99.05
2022-09-30T01:59:25.600Z,100.00
2022-09-30T02:04:43.565Z,100.00
2022-09-30T02:10:01.793Z,100.00
2022-09-30T02:15:19.929Z,97.83
2022-09-30T02:20:35.778Z,92.81
2022-09-30T02:26:30.004Z,93.31
2022-09-30T02:31:35.929Z,95.61
2022-09-30T02:36:44.992Z,95.30
2022-09-30T02:41:57.823Z,95.29
2022-09-30T02:47:15.670Z,97.44
2022-09-30T02:53:05.288Z,98.13
2022-09-30T02:58:20.058Z,95.03
2022-09-30T03:03:28.234Z,100.00
2022-09-30T03:08:30.873Z,100.00
2022-09-30T03:13:38.254Z,100.00
2022-09-30T03:19:24.758Z,100.00
2022-09-30T03:24:50.338Z,100.00
2022-09-30T03:30:09.731Z,100.00
2022-09-30T03:35:15.059Z,100.00
2022-09-30T03:40:28.653Z,100.00
2022-09-30T03:45:51.226Z,100.00
2022-09-30T03:50:55.050Z,100.00
2022-09-30T03:55:57.493Z,100.00
2022-09-30T04:01:00.028Z,100.00
2022-09-30T04:06:03.334Z,100.00
2022-09-30T04:11:06.418Z,100.00
2022-09-30T04:16:10.195Z,100.00
2022-09-30T04:21:15.313Z,100.00
2022-09-30T04:26:20.190Z,100.00
2022-09-30T04:31:32.864Z,100.00
2022-09-30T04:36:36.392Z,100.00
2022-09-30T04:41:43.296Z,100.00
2022-09-30T04:46:45.749Z,100.00
2022-09-30T04:51:48.281Z,100.00
2022-09-30T04:56:50.886Z,100.00
2022-09-30T05:01:53.652Z,100.00
2022-09-30T05:07:14.951Z,100.00
2022-09-30T05:12:17.497Z,100.00
2022-09-30T05:17:20.123Z,100.00
2022-09-30T05:22:24.827Z,100.00
2022-09-30T05:27:32.075Z,100.00
2022-09-30T05:32:34.801Z,100.00
2022-09-30T05:38:41.681Z,100.00
2022-09-30T05:44:02.165Z,100.00
2022-09-30T05:49:04.702Z,100.00
2022-09-30T05:54:07.409Z,100.00
2022-09-30T05:59:15.509Z,100.00
2022-09-30T06:04:19.764Z,100.00
2022-09-30T06:09:24.660Z,100.00
2022-09-30T06:14:28.916Z,100.00
2022-09-30T06:19:35.808Z,100.00
2022-09-30T06:24:41.189Z,100.00
2022-09-30T06:29:48.944Z,100.00
2022-09-30T06:34:55.814Z,100.00
2022-09-30T06:39:58.373Z,100.00
2022-09-30T06:45:01.233Z,100.00
2022-09-30T06:50:04.396Z,100.00
2022-09-30T06:55:17.226Z,100.00
2022-09-30T07:00:22.655Z,100.00
2022-09-30T07:05:26.548Z,100.00
2022-09-30T07:10:34.835Z,100.00
2022-09-30T07:15:38.232Z,100.00
2022-09-30T07:20:40.696Z,99.62
2022-09-30T07:26:09.252Z,94.55
2022-09-30T07:31:32.588Z,89.86
2022-09-30T07:36:38.098Z,87.34
2022-09-30T07:41:44.331Z,88.07
2022-09-30T07:46:51.889Z,85.65
2022-09-30T07:51:55.908Z,83.69
2022-09-30T07:57:14.658Z,85.58
2022-09-30T08:02:18.732Z,87.96
2022-09-30T08:07:22.472Z,88.82
2022-09-30T08:12:24.880Z,90.27
2022-09-30T08:17:28.008Z,88.02
2022-09-30T08:22:35.485Z,74.94
2022-09-30T08:27:40.157Z,74.43
2022-09-30T08:32:44.271Z,75.75
2022-09-30T08:37:46.963Z,76.45
2022-09-30T08:43:09.288Z,76.52
2022-09-30T08:48:53.621Z,74.41
2022-09-30T08:54:03.052Z,74.39
2022-09-30T08:59:15.869Z,73.42
2022-09-30T09:04:20.820Z,74.30
2022-09-30T09:09:26.348Z,75.02
2022-09-30T09:14:59.802Z,75.38
2022-09-30T09:20:13.508Z,75.50
2022-09-30T09:25:27.062Z,75.90
2022-09-30T09:30:45.038Z,74.11
2022-09-30T09:36:21.564Z,73.42
2022-09-30T09:41:42.389Z,74.07
2022-09-30T09:46:50.229Z,74.27
2022-09-30T09:52:21.565Z,71.85
2022-09-30T09:57:32.481Z,71.25
2022-09-30T10:02:35.121Z,70.19
2022-09-30T10:07:38.483Z,68.81
2022-09-30T10:12:41.983Z,69.43
2022-09-30T10:17:53.830Z,70.53
2022-09-30T10:23:10.560Z,67.54
2022-09-30T10:28:31.692Z,68.55
2022-09-30T10:33:42.532Z,70.83
2022-09-30T10:39:00.007Z,72.16
2022-09-30T10:44:15.771Z,73.13
2022-09-30T10:49:47.105Z,73.13
2022-09-30T10:55:02.284Z,71.61
2022-09-30T11:00:17.451Z,71.74
2022-09-30T11:05:47.249Z,71.67
2022-09-30T11:11:10.629Z,71.79
2022-09-30T11:16:27.375Z,70.75
2022-09-30T11:21:42.866Z,70.48
2022-09-30T11:27:11.944Z,69.93
2022-09-30T11:32:35.808Z,71.23
2022-09-30T11:38:05.779Z,69.80
2022-09-30T11:43:34.808Z,66.50
2022-09-30T11:48:51.004Z,67.25
2022-09-30T11:53:59.378Z,69.56
2022-09-30T11:59:14.072Z,68.10
2022-09-30T12:04:32.250Z,67.77
2022-09-30T12:09:40.865Z,69.78
2022-09-30T12:14:51.853Z,72.34
2022-09-30T12:20:03.092Z,72.60
2022-09-30T12:25:18.324Z,73.75
2022-09-30T12:30:34.293Z,72.07
2022-09-30T12:35:39.469Z,70.55
2022-09-30T12:41:02.775Z,69.77
2022-09-30T12:52:33.920Z,68.74
2022-09-30T12:57:43.604Z,68.62
2022-09-30T13:02:55.793Z,66.59
2022-09-30T13:08:04.950Z,66.70
2022-09-30T13:13:10.260Z,65.28
2022-09-30T13:18:26.918Z,60.95
2022-09-30T13:23:45.985Z,60.42
2022-09-30T13:28:50.738Z,60.15
2022-09-30T13:34:02.115Z,52.74
2022-09-30T13:39:25.331Z,50.16
2022-09-30T13:44:59.654Z,50.23
2022-09-30T13:50:27.860Z,50.67
2022-09-30T13:55:50.109Z,49.99
2022-09-30T14:01:01.670Z,48.52
2022-09-30T14:06:10.457Z,51.49
2022-09-30T14:11:37.468Z,49.99
2022-09-30T14:17:09.074Z,51.49
2022-09-30T14:22:15.539Z,51.32
2022-09-30T14:27:20.024Z,51.77
2022-09-30T14:32:37.481Z,51.65
2022-09-30T14:37:48.909Z,54.29
2022-09-30T14:42:58.302Z,54.74
2022-09-30T14:48:07.410Z,57.09
2022-09-30T14:53:50.199Z,57.18
2022-09-30T14:58:53.130Z,58.88
2022-09-30T15:04:03.569Z,58.98
2022-09-30T15:09:16.173Z,60.36
2022-09-30T15:14:26.671Z,61.68
2022-09-30T15:19:43.222Z,61.90
2022-09-30T15:24:47.866Z,63.44
2022-09-30T15:30:04.134Z,64.85
2022-09-30T15:35:17.177Z,66.22
2022-09-30T15:40:43.951Z,67.07
2022-09-30T15:45:48.700Z,66.75
2022-09-30T15:51:01.659Z,67.22
2022-09-30T15:56:22.360Z,68.00
2022-09-30T16:01:36.034Z,68.49
2022-09-30T16:06:52.818Z,67.58
2022-09-30T16:12:18.340Z,66.63
2022-09-30T16:17:38.793Z,65.37
2022-09-30T16:22:41.548Z,65.15
2022-09-30T16:27:45.368Z,63.52
2022-09-30T16:32:52.076Z,63.45
2022-09-30T16:38:12.410Z,64.04
2022-09-30T16:43:15.084Z,64.41
2022-09-30T16:48:28.154Z,63.95
2022-09-30T16:53:34.167Z,64.43
2022-09-30T16:58:36.677Z,66.34
2022-09-30T17:03:42.009Z,67.08
2022-09-30T17:08:45.536Z,66.92
2022-09-30T17:13:48.046Z,67.74
2022-09-30T17:18:54.332Z,66.31
2022-09-30T17:23:58.078Z,68.82
2022-09-30T17:29:21.242Z,69.96
2022-09-30T17:34:28.106Z,69.10
2022-09-30T17:39:30.660Z,70.00
2022-09-30T17:44:33.451Z,70.13
2022-09-30T17:54:53.358Z,70.25
2022-09-30T17:59:58.966Z,70.98
2022-09-30T18:05:01.697Z,71.94
2022-09-30T18:10:04.680Z,72.61
2022-09-30T18:15:11.660Z,73.52
2022-09-30T18:20:14.802Z,73.13
2022-09-30T18:25:20.830Z,74.19
2022-09-30T18:30:24.427Z,74.56
2022-09-30T18:35:27.352Z,75.73
2022-09-30T18:40:31.842Z,75.97
2022-09-30T18:45:40.879Z,76.36
2022-09-30T18:50:46.690Z,76.54
2022-09-30T18:55:49.325Z,77.31
2022-09-30T19:00:52.026Z,78.05
2022-09-30T19:05:58.960Z,79.11
2022-09-30T19:11:18.263Z,79.03
2022-09-30T19:16:36.578Z,79.19
2022-09-30T19:21:41.373Z,79.73
2022-09-30T19:26:44.056Z,77.91
2022-09-30T19:31:46.780Z,78.55
2022-09-30T19:36:52.807Z,78.91
2022-09-30T19:42:01.700Z,77.98
2022-09-30T19:47:16.707Z,81.22
2022-09-30T19:52:22.304Z,80.28
2022-09-30T19:57:25.640Z,81.08
2022-09-30T20:02:28.348Z,80.91
2022-09-30T20:07:30.984Z,81.12
2022-09-30T20:12:45.439Z,81.64
2022-09-30T20:17:50.312Z,81.23
2022-09-30T20:22:53.855Z,81.68
2022-09-30T20:27:56.460Z,81.60
2022-09-30T20:34:02.812Z,81.81
2022-09-30T20:39:10.785Z,82.21
2022-09-30T20:44:13.785Z,81.18
2022-09-30T20:49:18.248Z,79.61
2022-09-30T20:54:20.983Z,78.57
2022-09-30T20:59:26.310Z,76.09
2022-09-30T21:04:28.948Z,76.59
2022-09-30T21:09:36.672Z,77.17
2022-09-30T21:14:40.249Z,76.39
2022-09-30T21:19:43.501Z,76.70
2022-09-30T21:24:47.943Z,76.95
2022-09-30T21:29:50.500Z,77.85
2022-09-30T21:34:54.377Z,78.49
2022-09-30T21:39:57.821Z,82.83
2022-09-30T21:45:01.287Z,85.27
2022-09-30T21:50:15.554Z,87.29
2022-09-30T21:55:19.084Z,86.57
2022-09-30T22:00:22.284Z,84.37
2022-09-30T22:05:25.023Z,87.52
2022-09-30T22:10:27.656Z,90.40
2022-09-30T22:15:35.014Z,89.23
2022-09-30T22:20:37.652Z,92.50
2022-09-30T22:25:41.812Z,93.37
2022-09-30T22:30:46.181Z,94.08
2022-09-30T22:36:10.305Z,96.80
2022-09-30T22:41:16.449Z,100.00
2022-09-30T22:46:21.932Z,99.89
2022-09-30T22:51:25.643Z,100.00
2022-09-30T22:56:28.264Z,95.41
2022-09-30T23:01:40.479Z,98.33
2022-09-30T23:06:56.410Z,100.00
2022-09-30T23:12:01.985Z,98.43
2022-09-30T23:17:17.071Z,90.54
2022-09-30T23:22:20.011Z,86.44
2022-09-30T23:27:22.321Z,78.13
2022-09-30T23:32:26.763Z,76.77
2022-09-30T23:37:40.960Z,76.98
2022-09-30T23:42:43.395Z,79.91
2022-09-30T23:47:48.625Z,79.52
2022-09-30T23:52:51.743Z,78.32
2022-09-30T23:57:57.630Z,79.21
